Minto, Canada
Current Conditions -  °F | °C
As of 4:00 AM on Saturday 25 Oct 2014 (Local Time) from CYBR Reporting Station
Clear Clear  
Wind Chill: -2°   Ceiling: Unl
Heat Index:   Visibility: 15mi
Dew Point: -1°   Wind: 16mph
Humidity: 75%   Direction: 280°W
Pressure: 29.97"   Gusts: NA
Location:  49.4°N, 100.02°W
Report Text: CYBR 250900Z 28014KT 15SM SKC 03/M01 A2997 RMK SLP161
Loading
Personal Weather Stations






























Interactive Weather Map
Tropical Storm Tracking
New forecast layout! Learn more

10-Day Weather Forecast

Advertisements
Track Severe Weather on mobile